createdAt,value
2018-10-18T00:01:59.631Z,14.87
2018-10-18T00:04:28.010Z,16.03
2018-10-18T00:06:56.401Z,19.60
2018-10-18T00:09:24.871Z,18.97
2018-10-18T00:11:53.497Z,15.67
2018-10-18T00:14:21.983Z,17.60
2018-10-18T00:16:50.415Z,15.07
2018-10-18T00:19:18.847Z,17.50
2018-10-18T00:21:47.260Z,16.90
2018-10-18T00:24:15.801Z,21.90
2018-10-18T00:26:44.166Z,17.80
2018-10-18T00:29:12.618Z,19.60
2018-10-18T00:31:41.062Z,21.60
2018-10-18T00:34:09.473Z,21.50
2018-10-18T00:36:37.897Z,18.67
2018-10-18T00:39:09.546Z,19.63
2018-10-18T00:41:37.956Z,20.27
2018-10-18T00:44:07.154Z,19.00
2018-10-18T00:46:35.565Z,13.13
2018-10-18T00:49:04.082Z,17.57
2018-10-18T00:51:32.465Z,19.53
2018-10-18T00:54:00.876Z,20.60
2018-10-18T00:56:29.273Z,23.17
2018-10-18T00:58:57.765Z,16.90
2018-10-18T01:01:26.393Z,20.27
2018-10-18T01:03:54.791Z,18.53
2018-10-18T01:06:23.266Z,15.73
2018-10-18T01:08:51.752Z,8.60
2018-10-18T01:11:20.641Z,17.50
2018-10-18T01:13:49.101Z,19.67
2018-10-18T01:16:17.524Z,22.10
2018-10-18T01:18:45.915Z,15.73
2018-10-18T01:21:14.346Z,18.83
2018-10-18T01:23:42.826Z,19.90
2018-10-18T01:26:11.909Z,15.50
2018-10-18T01:28:40.256Z,17.33
2018-10-18T01:31:08.701Z,16.03
2018-10-18T01:33:37.147Z,17.13
2018-10-18T01:36:05.795Z,18.87
2018-10-18T01:38:34.250Z,19.07
2018-10-18T01:41:02.797Z,19.67
2018-10-18T01:43:31.171Z,12.87
2018-10-18T01:45:59.577Z,12.50
2018-10-18T01:48:28.084Z,17.60
2018-10-18T01:50:56.556Z,22.57
2018-10-18T01:53:25.014Z,18.37
2018-10-18T01:55:53.473Z,16.97
2018-10-18T01:58:21.834Z,15.80
2018-10-18T02:00:50.285Z,13.73
2018-10-18T02:03:18.717Z,17.07
2018-10-18T02:05:47.222Z,18.70
2018-10-18T02:08:15.803Z,17.17
2018-10-18T02:10:44.185Z,12.83
2018-10-18T02:13:12.596Z,18.20
2018-10-18T02:15:41.026Z,18.57
2018-10-18T02:18:09.614Z,18.97
2018-10-18T02:20:37.979Z,17.20
2018-10-18T02:23:06.485Z,17.60
2018-10-18T02:25:34.890Z,18.33
2018-10-18T02:28:03.624Z,15.70
2018-10-18T02:30:32.052Z,18.33
2018-10-18T02:33:00.490Z,8.00
2018-10-18T02:35:28.958Z,18.30
2018-10-18T02:37:57.439Z,17.23
2018-10-18T02:40:25.878Z,16.70
2018-10-18T02:42:54.285Z,15.20
2018-10-18T02:45:22.709Z,20.07
2018-10-18T02:47:51.164Z,18.63
2018-10-18T02:50:19.720Z,19.83
2018-10-18T02:52:48.185Z,17.97
2018-10-18T02:55:16.610Z,19.13
2018-10-18T02:57:45.057Z,16.60
2018-10-18T03:00:13.586Z,14.43
2018-10-18T03:02:42.130Z,19.50
2018-10-18T03:05:10.545Z,18.30
2018-10-18T03:07:38.981Z,23.60
2018-10-18T03:10:07.923Z,12.17
2018-10-18T03:12:36.606Z,14.10
2018-10-18T03:15:06.162Z,17.07
2018-10-18T03:17:35.470Z,17.60
2018-10-18T03:20:03.943Z,18.43
2018-10-18T03:22:32.353Z,16.90
2018-10-18T03:25:00.810Z,18.03
2018-10-18T03:27:29.278Z,14.17
2018-10-18T03:29:57.712Z,19.07
2018-10-18T03:32:26.128Z,14.37
2018-10-18T03:34:54.551Z,18.60
2018-10-18T03:37:23.004Z,17.53
2018-10-18T03:39:51.973Z,16.77
2018-10-18T03:42:20.453Z,15.50
2018-10-18T03:44:48.912Z,17.53
2018-10-18T03:47:17.355Z,16.37
2018-10-18T03:49:45.782Z,17.33
2018-10-18T03:52:14.278Z,17.40
2018-10-18T03:54:42.698Z,19.33
2018-10-18T03:57:11.071Z,14.30
2018-10-18T03:59:39.669Z,15.53
2018-10-18T04:02:08.182Z,16.50
2018-10-18T04:04:36.581Z,16.23
2018-10-18T04:07:05.163Z,19.50
2018-10-18T04:09:33.740Z,17.53
2018-10-18T04:12:02.314Z,17.23
2018-10-18T04:14:30.779Z,18.93
2018-10-18T04:16:59.183Z,17.20
2018-10-18T04:19:39.382Z,15.93
2018-10-18T04:22:08.016Z,19.60
2018-10-18T04:24:36.408Z,18.20
2018-10-18T04:27:04.878Z,15.57
2018-10-18T04:29:33.296Z,16.97
2018-10-18T04:32:02.297Z,14.50
2018-10-18T04:34:30.727Z,15.77
2018-10-18T04:36:59.193Z,18.27
2018-10-18T04:39:27.608Z,18.73
2018-10-18T04:41:56.065Z,18.40
2018-10-18T04:44:24.471Z,17.50
2018-10-18T04:46:52.864Z,19.97
2018-10-18T04:49:21.255Z,18.20
2018-10-18T04:51:50.380Z,17.00
2018-10-18T04:54:18.859Z,16.83
2018-10-18T04:56:47.351Z,17.63
2018-10-18T04:59:15.726Z,17.60
2018-10-18T05:01:44.218Z,16.83
2018-10-18T05:04:12.599Z,16.77
2018-10-18T05:06:41.029Z,17.07
2018-10-18T05:09:09.438Z,17.00
2018-10-18T05:11:37.843Z,20.13
2018-10-18T05:14:06.383Z,16.27
2018-10-18T05:16:34.871Z,16.03
2018-10-18T05:19:03.388Z,16.27
2018-10-18T05:21:31.821Z,18.77
2018-10-18T05:24:00.281Z,16.60
2018-10-18T05:26:28.725Z,19.07
2018-10-18T05:28:57.209Z,16.50
2018-10-18T05:31:25.664Z,18.00
2018-10-18T05:33:54.135Z,20.70
2018-10-18T05:36:22.562Z,17.73
2018-10-18T05:38:50.987Z,17.73
2018-10-18T05:41:19.572Z,16.53
2018-10-18T05:43:47.986Z,17.60
2018-10-18T05:46:16.408Z,17.90
2018-10-18T05:48:44.820Z,16.20
2018-10-18T05:51:13.242Z,17.50
2018-10-18T05:53:41.785Z,15.67
2018-10-18T05:56:10.151Z,17.00
2018-10-18T05:58:38.594Z,17.07
2018-10-18T06:01:07.425Z,16.90
2018-10-18T06:03:36.596Z,16.50
2018-10-18T06:06:05.361Z,17.20
2018-10-18T06:08:33.814Z,17.77
2018-10-18T06:11:13.371Z,16.30
2018-10-18T06:13:41.925Z,15.67
2018-10-18T06:16:10.375Z,17.00
2018-10-18T06:18:39.051Z,16.13
2018-10-18T06:21:07.528Z,17.17
2018-10-18T06:23:36.268Z,17.73
2018-10-18T06:26:04.839Z,20.17
2018-10-18T06:28:34.372Z,20.13
2018-10-18T06:31:02.837Z,16.80
2018-10-18T06:33:31.226Z,20.73
2018-10-18T06:35:59.861Z,19.40
2018-10-18T06:38:28.434Z,18.40
2018-10-18T06:40:56.946Z,15.43
2018-10-18T06:43:25.326Z,17.43
2018-10-18T06:45:53.728Z,14.53
2018-10-18T06:48:22.251Z,16.33
2018-10-18T06:50:50.646Z,19.67
2018-10-18T06:53:19.112Z,18.07
2018-10-18T06:55:47.577Z,14.60
2018-10-18T06:58:15.970Z,17.97
2018-10-18T07:00:51.105Z,18.83
2018-10-18T07:03:19.516Z,19.43
2018-10-18T07:05:47.956Z,20.67
2018-10-18T07:08:16.368Z,27.50
2018-10-18T07:10:44.817Z,18.83
2018-10-18T07:13:13.352Z,19.33
2018-10-18T07:15:41.921Z,19.33
2018-10-18T07:18:10.604Z,18.10
2018-10-18T07:20:38.884Z,19.27
2018-10-18T07:23:07.351Z,22.13
2018-10-18T07:25:35.762Z,13.50
2018-10-18T07:28:04.246Z,18.17
2018-10-18T07:30:32.641Z,17.80
2018-10-18T07:33:01.057Z,13.97
2018-10-18T07:35:29.556Z,17.13
2018-10-18T07:37:57.972Z,19.00
2018-10-18T07:40:26.357Z,17.37
2018-10-18T07:42:54.797Z,16.97
2018-10-18T07:45:23.304Z,14.17
2018-10-18T07:47:51.753Z,10.33
2018-10-18T07:50:20.300Z,19.07
2018-10-18T07:52:48.775Z,14.10
2018-10-18T07:55:17.236Z,20.50
2018-10-18T07:57:45.692Z,18.37
2018-10-18T08:00:15.375Z,17.73
2018-10-18T08:02:44.551Z,20.23
2018-10-18T08:05:13.480Z,14.57
2018-10-18T08:07:41.985Z,19.73
2018-10-18T08:10:16.322Z,15.00
2018-10-18T08:12:44.748Z,16.63
2018-10-18T08:15:14.388Z,13.73
2018-10-18T08:17:43.394Z,10.07
2018-10-18T08:20:12.434Z,7.97
2018-10-18T08:22:41.500Z,10.10
2018-10-18T08:25:10.015Z,8.73
2018-10-18T08:27:38.410Z,9.53
2018-10-18T08:30:09.349Z,12.83
2018-10-18T08:32:38.016Z,11.23
2018-10-18T08:35:07.267Z,8.43
2018-10-18T08:37:35.891Z,12.33
2018-10-18T08:40:04.505Z,10.27
2018-10-18T08:42:32.897Z,11.73
2018-10-18T08:45:01.324Z,11.07
2018-10-18T08:47:29.792Z,11.83
2018-10-18T08:49:58.338Z,9.40
2018-10-18T08:52:26.683Z,9.10
2018-10-18T08:54:55.188Z,8.60
2018-10-18T08:57:23.564Z,8.50
2018-10-18T08:59:52.018Z,9.83
2018-10-18T09:02:20.449Z,8.83
2018-10-18T09:04:48.868Z,7.30
2018-10-18T09:07:17.490Z,6.73
2018-10-18T09:09:45.768Z,8.13
2018-10-18T09:12:14.190Z,7.90
2018-10-18T09:14:42.616Z,9.37
2018-10-18T09:17:11.121Z,15.43
2018-10-18T09:19:40.122Z,7.67
2018-10-18T09:22:08.638Z,8.30
2018-10-18T09:24:37.076Z,11.40
2018-10-18T09:27:05.599Z,10.07
2018-10-18T09:29:34.081Z,12.40
2018-10-18T09:32:02.541Z,10.63
2018-10-18T09:34:31.026Z,6.97
2018-10-18T09:36:59.432Z,13.40
2018-10-18T09:39:27.969Z,11.07
2018-10-18T09:41:56.484Z,17.27
2018-10-18T09:44:24.987Z,11.47
2018-10-18T09:46:53.335Z,11.20
2018-10-18T09:49:21.880Z,17.10
2018-10-18T09:51:50.297Z,12.17
2018-10-18T09:54:18.757Z,11.60
2018-10-18T09:56:47.215Z,15.57
2018-10-18T09:59:15.629Z,10.53
2018-10-18T10:01:53.140Z,8.23
2018-10-18T10:04:21.626Z,11.73
2018-10-18T10:06:50.030Z,11.97
2018-10-18T10:09:19.167Z,16.60
2018-10-18T10:11:47.728Z,10.57
2018-10-18T10:14:16.146Z,11.40
2018-10-18T10:16:44.614Z,16.97
2018-10-18T10:19:13.265Z,12.57
2018-10-18T10:21:41.765Z,9.17
2018-10-18T10:24:10.199Z,9.20
2018-10-18T10:26:38.625Z,11.47
2018-10-18T10:29:07.148Z,11.80
2018-10-18T10:31:35.580Z,10.70
2018-10-18T10:34:04.008Z,10.20
2018-10-18T10:36:32.442Z,8.53
2018-10-18T10:39:00.958Z,11.37
2018-10-18T10:41:29.377Z,9.30
2018-10-18T10:43:57.928Z,16.10
2018-10-18T10:46:26.341Z,16.60
2018-10-18T10:48:54.811Z,7.77
2018-10-18T10:51:23.317Z,9.00
2018-10-18T10:53:51.820Z,13.60
2018-10-18T10:56:20.291Z,11.67
2018-10-18T10:58:48.731Z,13.60
2018-10-18T11:01:20.178Z,7.67
2018-10-18T11:03:49.415Z,8.60
2018-10-18T11:06:18.037Z,13.27
2018-10-18T11:08:46.518Z,11.97
2018-10-18T11:11:15.857Z,12.93
2018-10-18T11:13:44.577Z,9.40
2018-10-18T11:16:13.049Z,13.07
2018-10-18T11:18:41.881Z,11.17
2018-10-18T11:21:11.905Z,11.83
2018-10-18T11:23:40.290Z,13.37
2018-10-18T11:26:08.749Z,14.67
2018-10-18T11:28:37.135Z,13.93
2018-10-18T11:31:05.779Z,12.00
2018-10-18T11:33:34.211Z,10.53
2018-10-18T11:36:02.748Z,13.93
2018-10-18T11:38:31.212Z,14.37
2018-10-18T11:40:59.687Z,12.13
2018-10-18T11:43:28.233Z,13.00
2018-10-18T11:45:56.658Z,8.47
2018-10-18T11:48:25.088Z,10.20
2018-10-18T11:50:53.576Z,8.63
2018-10-18T11:53:22.621Z,13.30
2018-10-18T11:55:51.079Z,9.40
2018-10-18T11:58:19.496Z,13.77
2018-10-18T12:00:48.076Z,14.53
2018-10-18T12:03:16.546Z,10.77
2018-10-18T12:05:45.134Z,13.37
2018-10-18T12:08:13.656Z,12.60
2018-10-18T12:10:42.055Z,8.37
2018-10-18T12:13:10.457Z,10.53
2018-10-18T12:15:38.890Z,14.27
2018-10-18T12:18:07.352Z,12.33
2018-10-18T12:20:35.865Z,8.53
2018-10-18T12:23:04.515Z,12.73
2018-10-18T12:25:32.931Z,9.13
2018-10-18T12:28:01.408Z,12.63
2018-10-18T12:30:29.829Z,7.97
2018-10-18T12:32:58.319Z,14.43
2018-10-18T12:35:26.723Z,8.17
2018-10-18T12:37:55.230Z,12.67
2018-10-18T12:40:23.703Z,12.83
2018-10-18T12:42:52.411Z,14.83
2018-10-18T12:45:20.905Z,12.50
2018-10-18T12:47:49.347Z,11.63
2018-10-18T12:50:17.908Z,10.43
2018-10-18T12:52:46.247Z,12.63
2018-10-18T12:55:14.702Z,11.23
2018-10-18T12:57:43.230Z,10.93
2018-10-18T13:00:11.973Z,8.77
2018-10-18T13:02:40.466Z,14.57
2018-10-18T13:05:09.939Z,13.97
2018-10-18T13:07:38.469Z,8.03
2018-10-18T13:10:08.721Z,15.33
2018-10-18T13:12:37.361Z,11.20
2018-10-18T13:15:06.903Z,4.73
2018-10-18T13:17:35.385Z,12.03
2018-10-18T13:20:04.607Z,9.53
2018-10-18T13:22:32.994Z,7.90
2018-10-18T13:25:01.405Z,5.97
2018-10-18T13:27:30.020Z,10.97
2018-10-18T13:29:58.476Z,8.00
2018-10-18T13:32:26.912Z,6.60
2018-10-18T13:34:55.333Z,6.13
2018-10-18T13:37:24.461Z,11.63
2018-10-18T13:39:52.866Z,9.43
2018-10-18T13:42:21.328Z,9.83
2018-10-18T13:44:49.814Z,10.33
2018-10-18T13:47:18.287Z,9.43
2018-10-18T13:49:46.749Z,11.07
2018-10-18T13:52:15.182Z,15.70
2018-10-18T13:54:43.617Z,17.20
2018-10-18T13:57:12.059Z,6.87
2018-10-18T13:59:51.633Z,10.53
2018-10-18T14:02:20.162Z,8.90
2018-10-18T14:04:48.583Z,9.03
2018-10-18T14:07:17.067Z,11.87
2018-10-18T14:09:45.630Z,11.77
2018-10-18T14:12:14.123Z,10.80
2018-10-18T14:14:42.585Z,10.27
2018-10-18T14:17:11.104Z,6.73
2018-10-18T14:19:39.421Z,8.63
2018-10-18T14:22:07.833Z,11.13
2018-10-18T14:24:36.245Z,10.80
2018-10-18T14:27:04.800Z,12.93
2018-10-18T14:29:33.231Z,12.13
2018-10-18T14:32:01.778Z,11.70
2018-10-18T14:34:30.228Z,13.10
2018-10-18T14:36:58.685Z,8.23
2018-10-18T14:39:27.087Z,11.20
2018-10-18T14:41:55.601Z,9.63
2018-10-18T14:44:25.037Z,8.93
2018-10-18T14:46:53.315Z,13.93
2018-10-18T14:49:21.711Z,15.30
2018-10-18T14:51:50.151Z,10.13
2018-10-18T14:54:18.570Z,12.13
2018-10-18T14:56:47.002Z,11.10
2018-10-18T14:59:15.465Z,12.00
2018-10-18T15:01:43.934Z,7.53
2018-10-18T15:04:12.412Z,7.93
2018-10-18T15:06:40.818Z,6.00
2018-10-18T15:09:09.503Z,12.33
2018-10-18T15:11:38.377Z,8.17
2018-10-18T15:14:06.950Z,11.10
2018-10-18T15:16:35.346Z,9.70
2018-10-18T15:19:04.357Z,15.40
2018-10-18T15:21:32.790Z,11.43
2018-10-18T15:24:01.202Z,6.43
2018-10-18T15:26:29.656Z,12.27
2018-10-18T15:28:59.142Z,10.33
2018-10-18T15:31:27.507Z,8.87
2018-10-18T15:33:55.895Z,13.10
2018-10-18T15:36:24.401Z,12.43
2018-10-18T15:38:52.995Z,14.87
2018-10-18T15:41:21.272Z,14.43
2018-10-18T15:43:49.701Z,10.87
2018-10-18T15:46:18.289Z,13.07
2018-10-18T15:48:46.746Z,14.10
2018-10-18T15:51:15.329Z,11.17
2018-10-18T15:53:43.657Z,14.70
2018-10-18T15:56:12.191Z,11.63
2018-10-18T15:58:40.794Z,13.63
2018-10-18T16:01:09.242Z,17.90
2018-10-18T16:03:37.707Z,12.57
2018-10-18T16:06:06.346Z,11.17
2018-10-18T16:08:34.842Z,13.57
2018-10-18T16:11:03.378Z,13.93
2018-10-18T16:13:31.927Z,9.37
2018-10-18T16:16:00.327Z,12.70
2018-10-18T16:18:28.847Z,15.10
2018-10-18T16:21:04.137Z,11.63
2018-10-18T16:23:32.869Z,12.83
2018-10-18T16:26:01.451Z,15.53
2018-10-18T16:28:29.805Z,10.27
2018-10-18T16:30:59.089Z,11.40
2018-10-18T16:33:27.521Z,14.50
2018-10-18T16:35:55.934Z,12.37
2018-10-18T16:38:24.413Z,14.43
2018-10-18T16:40:52.847Z,14.47
2018-10-18T16:43:21.302Z,13.77
2018-10-18T16:45:49.730Z,11.40
2018-10-18T16:48:18.377Z,11.97
2018-10-18T16:50:46.722Z,16.20
2018-10-18T16:53:15.122Z,11.60
2018-10-18T16:55:43.552Z,13.33
2018-10-18T16:58:12.138Z,9.33
2018-10-18T17:00:40.556Z,11.67
2018-10-18T17:03:09.036Z,12.87
2018-10-18T17:05:38.861Z,13.57
2018-10-18T17:08:07.433Z,11.03
2018-10-18T17:10:36.602Z,13.08
2018-10-18T17:13:05.504Z,9.13
2018-10-18T17:15:33.940Z,13.27
2018-10-18T17:18:02.637Z,13.70
2018-10-18T17:20:31.056Z,13.40
2018-10-18T17:23:00.167Z,9.53
2018-10-18T17:25:28.689Z,10.07
2018-10-18T17:27:57.157Z,13.17
2018-10-18T17:30:25.720Z,13.30
2018-10-18T17:32:54.279Z,15.57
2018-10-18T17:35:22.846Z,12.70
2018-10-18T17:37:51.395Z,11.47
2018-10-18T17:40:19.976Z,17.27
2018-10-18T17:42:48.346Z,10.53
2018-10-18T17:45:16.843Z,14.83
2018-10-18T17:47:45.298Z,12.83
2018-10-18T17:50:13.847Z,12.73
2018-10-18T17:52:42.283Z,15.03
2018-10-18T17:55:10.697Z,12.13
2018-10-18T17:57:39.353Z,13.27
2018-10-18T18:00:10.943Z,13.13
2018-10-18T18:02:39.749Z,17.03
2018-10-18T18:05:08.728Z,15.17
2018-10-18T18:07:37.249Z,14.57
2018-10-18T18:10:07.799Z,12.50
2018-10-18T18:12:36.399Z,13.10
2018-10-18T18:15:05.770Z,13.70
2018-10-18T18:17:34.225Z,10.10
2018-10-18T18:20:02.690Z,13.00
2018-10-18T18:22:31.142Z,11.80
2018-10-18T18:24:59.618Z,13.83
2018-10-18T18:27:28.086Z,11.33
2018-10-18T18:29:56.539Z,12.33
2018-10-18T18:32:25.021Z,12.80
2018-10-18T18:34:53.443Z,10.17
2018-10-18T18:37:21.878Z,14.20
2018-10-18T18:39:50.426Z,11.03
2018-10-18T18:42:18.847Z,13.23
2018-10-18T18:44:47.309Z,12.40
2018-10-18T18:47:15.874Z,9.87
2018-10-18T18:49:44.925Z,12.93
2018-10-18T18:52:13.329Z,6.63
2018-10-18T18:54:41.760Z,6.20
2018-10-18T18:57:10.242Z,9.37
2018-10-18T18:59:38.661Z,9.90
2018-10-18T19:02:07.151Z,8.33
2018-10-18T19:04:35.655Z,7.43
2018-10-18T19:07:04.889Z,7.37
2018-10-18T19:09:33.445Z,5.73
2018-10-18T19:12:01.871Z,9.50
2018-10-18T19:14:30.329Z,16.23
2018-10-18T19:16:58.720Z,11.00
2018-10-18T19:19:27.145Z,12.50
2018-10-18T19:21:55.659Z,8.33
2018-10-18T19:24:24.089Z,9.17
2018-10-18T19:26:52.518Z,9.27
2018-10-18T19:29:20.962Z,8.83
2018-10-18T19:31:49.374Z,9.10
2018-10-18T19:34:17.834Z,8.87
2018-10-18T19:36:46.308Z,10.07
2018-10-18T19:39:14.755Z,7.33
2018-10-18T19:41:43.574Z,11.17
2018-10-18T19:44:12.628Z,12.10
2018-10-18T19:46:42.339Z,4.83
2018-10-18T19:49:10.662Z,6.47
2018-10-18T19:51:39.658Z,6.33
2018-10-18T19:54:12.630Z,7.77
2018-10-18T19:56:41.111Z,7.83
2018-10-18T19:59:09.706Z,4.77
2018-10-18T20:01:38.257Z,7.93
2018-10-18T20:04:07.263Z,8.57
2018-10-18T20:06:35.777Z,7.97
2018-10-18T20:09:06.142Z,5.77
2018-10-18T20:11:34.614Z,7.83
2018-10-18T20:14:03.119Z,5.17
2018-10-18T20:16:31.518Z,8.60
2018-10-18T20:19:00.028Z,8.27
2018-10-18T20:21:28.453Z,6.50
2018-10-18T20:23:56.936Z,7.17
2018-10-18T20:26:25.465Z,3.40
2018-10-18T20:28:53.747Z,3.90
2018-10-18T20:31:22.196Z,7.37
2018-10-18T20:33:50.680Z,5.73
2018-10-18T20:36:19.102Z,4.87
2018-10-18T20:38:47.501Z,6.87
2018-10-18T20:41:16.022Z,8.63
2018-10-18T20:43:44.427Z,4.97
2018-10-18T20:46:12.895Z,6.80
2018-10-18T20:48:41.298Z,9.07
2018-10-18T20:51:09.764Z,9.00
2018-10-18T20:53:38.147Z,7.03
2018-10-18T20:56:06.879Z,4.73
2018-10-18T20:58:35.339Z,6.07
2018-10-18T21:01:04.484Z,5.67
2018-10-18T21:03:32.876Z,5.27
2018-10-18T21:06:01.319Z,5.37
2018-10-18T21:08:29.725Z,7.17
2018-10-18T21:10:58.181Z,8.63
2018-10-18T21:13:26.572Z,6.57
2018-10-18T21:15:54.994Z,10.90
2018-10-18T21:18:23.369Z,6.13
2018-10-18T21:20:51.871Z,6.67
2018-10-18T21:23:20.398Z,5.03
2018-10-18T21:25:48.842Z,7.57
2018-10-18T21:28:17.265Z,5.27
2018-10-18T21:30:45.705Z,4.63
2018-10-18T21:33:14.891Z,6.33
2018-10-18T21:35:43.298Z,6.20
2018-10-18T21:38:11.689Z,6.87
2018-10-18T21:40:40.065Z,7.13
2018-10-18T21:43:08.480Z,6.43
2018-10-18T21:45:36.886Z,8.43
2018-10-18T21:48:05.911Z,8.57
2018-10-18T21:50:34.336Z,6.80
2018-10-18T21:53:02.764Z,5.73
2018-10-18T21:55:31.321Z,7.47
2018-10-18T21:57:59.766Z,8.57
2018-10-18T22:00:28.977Z,7.03
2018-10-18T22:02:57.461Z,9.17
2018-10-18T22:05:25.814Z,6.13
2018-10-18T22:07:54.206Z,6.30
2018-10-18T22:10:22.614Z,7.47
2018-10-18T22:12:51.037Z,7.63
2018-10-18T22:15:19.457Z,7.30
2018-10-18T22:17:47.838Z,6.43
2018-10-18T22:20:16.252Z,7.13
2018-10-18T22:22:44.666Z,7.10
2018-10-18T22:25:13.076Z,6.63
2018-10-18T22:27:41.523Z,8.23
2018-10-18T22:30:10.025Z,10.57
2018-10-18T22:32:38.610Z,6.30
2018-10-18T22:35:07.136Z,9.10
2018-10-18T22:37:35.547Z,10.10
2018-10-18T22:40:04.063Z,6.97
2018-10-18T22:42:32.452Z,5.20
2018-10-18T22:45:00.908Z,7.73
2018-10-18T22:47:29.406Z,6.73
2018-10-18T22:49:57.796Z,6.60
2018-10-18T22:52:26.189Z,6.00
2018-10-18T22:54:54.620Z,6.67
2018-10-18T22:57:23.028Z,6.93
2018-10-18T22:59:51.397Z,5.93
2018-10-18T23:02:19.834Z,4.23
2018-10-18T23:04:48.234Z,6.03
2018-10-18T23:07:16.687Z,6.00
2018-10-18T23:09:45.135Z,8.90
2018-10-18T23:12:13.598Z,5.30
2018-10-18T23:14:42.776Z,7.33
2018-10-18T23:17:11.370Z,9.27
2018-10-18T23:19:39.725Z,8.83
2018-10-18T23:22:08.673Z,6.53
2018-10-18T23:24:39.180Z,7.70
2018-10-18T23:27:08.420Z,6.27
2018-10-18T23:29:38.038Z,5.77
2018-10-18T23:32:06.601Z,5.77
2018-10-18T23:34:35.002Z,5.13
2018-10-18T23:37:03.378Z,8.93
2018-10-18T23:39:32.541Z,7.20
2018-10-18T23:42:07.289Z,8.20
2018-10-18T23:44:35.913Z,7.73
2018-10-18T23:47:04.767Z,8.53
2018-10-18T23:49:33.179Z,8.93
2018-10-18T23:52:01.616Z,7.90
2018-10-18T23:54:30.029Z,4.27
2018-10-18T23:56:58.570Z,8.77
2018-10-18T23:59:26.929Z,6.23
